Time;durP1;ratioP1;P1;durP2;ratioP2;P2;SDS_P1;SDS_P2;PMS_P1;PMS_P2;Temp;Humidity;BMP_temperature;BMP_pressure;BME280_temperature;BME280_humidity;BME280_pressure;Samples;Min_cycle;Max_cycle;Signal;HPM_P1;HPM_P2
2023/08/14 00:00:27;;;;;;;13.48;6.60;;;16.60;99.90;;;;;;4993803;28;20093;-46
2023/08/14 00:02:53;;;;;;;7.88;5.93;;;16.60;99.90;;;;;;5011228;28;20160;-46
2023/08/14 00:05:18;;;;;;;5.70;5.18;;;16.50;99.90;;;;;;5010857;28;20061;-46
2023/08/14 00:07:44;;;;;;;10.82;6.47;;;16.50;99.90;;;;;;5011456;28;20045;-45
2023/08/14 00:10:09;;;;;;;8.75;5.82;;;16.50;99.90;;;;;;5011217;28;20385;-46
2023/08/14 00:12:35;;;;;;;7.55;5.40;;;16.50;99.90;;;;;;5011108;28;20029;-46
2023/08/14 00:15:00;;;;;;;8.05;5.50;;;16.40;99.90;;;;;;5010842;28;20036;-46
2023/08/14 00:17:26;;;;;;;6.88;5.75;;;16.40;99.90;;;;;;5011341;28;20032;-47
2023/08/14 00:19:51;;;;;;;13.55;6.32;;;16.40;99.90;;;;;;5011400;28;20026;-46
2023/08/14 00:22:17;;;;;;;7.53;5.82;;;16.40;99.90;;;;;;5010925;28;20036;-45
2023/08/14 00:24:42;;;;;;;6.72;5.47;;;16.30;99.90;;;;;;5010756;28;20022;-46
2023/08/14 00:27:08;;;;;;;6.88;5.30;;;16.40;99.90;;;;;;5010830;28;20100;-47
2023/08/14 00:29:33;;;;;;;6.63;5.82;;;16.40;99.90;;;;;;4992999;28;20113;-46
2023/08/14 00:31:59;;;;;;;7.38;4.97;;;16.30;99.90;;;;;;5010873;28;20061;-46
2023/08/14 00:34:24;;;;;;;9.48;5.95;;;16.30;99.90;;;;;;5010381;28;20109;-46
2023/08/14 00:36:50;;;;;;;8.82;5.50;;;16.30;99.90;;;;;;5010896;28;20048;-46
2023/08/14 00:39:16;;;;;;;8.23;5.20;;;16.20;99.90;;;;;;5010838;28;20028;-46
2023/08/14 00:41:41;;;;;;;9.00;6.03;;;16.30;99.90;;;;;;5010793;28;20022;-47
2023/08/14 00:44:07;;;;;;;10.80;5.60;;;16.30;99.90;;;;;;5010600;28;20022;-45
2023/08/14 00:46:33;;;;;;;5.82;5.18;;;16.30;99.90;;;;;;5010589;28;20087;-47
2023/08/14 00:48:59;;;;;;;9.60;6.05;;;16.30;99.90;;;;;;5010751;28;20091;-45
2023/08/14 00:51:25;;;;;;;6.03;5.18;;;16.20;99.90;;;;;;5010642;28;20477;-45
2023/08/14 00:53:52;;;;;;;6.82;5.05;;;16.30;99.90;;;;;;5010368;28;20026;-46
2023/08/14 00:56:19;;;;;;;7.78;4.97;;;16.30;99.90;;;;;;5010053;28;20094;-46
2023/08/14 00:58:45;;;;;;;7.97;6.32;;;16.30;99.90;;;;;;5010631;28;20042;-47
2023/08/14 01:01:10;;;;;;;9.27;5.32;;;16.30;99.90;;;;;;5010360;28;20029;-46
2023/08/14 01:03:37;;;;;;;6.28;5.05;;;16.30;99.90;;;;;;5010205;28;20033;-45
2023/08/14 01:06:02;;;;;;;7.38;5.47;;;16.30;99.90;;;;;;4992599;28;20021;-46
2023/08/14 01:08:28;;;;;;;9.35;4.60;;;16.30;99.90;;;;;;5010639;28;20401;-46
2023/08/14 01:11:15;;;;;;;8.57;5.20;;;16.40;99.90;;;;;;5010495;28;20057;-46
2023/08/14 01:13:52;;;;;;;6.95;4.40;;;16.50;99.90;;;;;;5010240;28;20105;-46
2023/08/14 01:16:23;;;;;;;6.82;4.30;;;16.60;99.90;;;;;;5010138;28;20069;-47
2023/08/14 01:18:51;;;;;;;;;;;16.60;99.90;;;;;;5010918;28;20030;-46
2023/08/14 01:21:16;;;;;;;5.70;4.93;;;16.70;99.90;;;;;;5010289;28;19959;-47
2023/08/14 01:24:23;;;;;;;8.48;4.30;;;16.70;99.90;;;;;;5009939;28;20109;-47
2023/08/14 01:26:50;;;;;;;5.60;4.03;;;16.80;99.90;;;;;;5006297;28;20034;-47
2023/08/14 01:29:16;;;;;;;7.20;4.45;;;16.80;99.90;;;;;;5010172;28;20021;-46
2023/08/14 01:31:41;;;;;;;9.88;5.20;;;16.70;99.90;;;;;;5010158;28;20026;-46
2023/08/14 01:34:07;;;;;;;5.88;4.45;;;16.70;99.90;;;;;;5010468;28;20114;-48
2023/08/14 01:36:40;;;;;;;9.98;3.95;;;16.70;99.90;;;;;;5010094;28;20025;-47
2023/08/14 01:39:10;;;;;;;5.45;3.65;;;16.60;99.90;;;;;;5010368;28;20057;-45
2023/08/14 01:41:56;;;;;;;5.40;4.35;;;16.50;99.90;;;;;;5012873;28;20022;-46
2023/08/14 01:44:24;;;;;;;6.57;3.88;;;16.50;99.90;;;;;;5013765;28;20068;-48
2023/08/14 01:46:52;;;;;;;6.03;3.83;;;16.40;99.90;;;;;;5014138;28;20018;-47
2023/08/14 01:49:19;;;;;;;5.82;4.22;;;16.30;99.90;;;;;;5013900;28;20029;-49
2023/08/14 01:51:47;;;;;;;9.48;3.85;;;16.40;99.90;;;;;;5013904;28;20064;-47
2023/08/14 01:54:13;;;;;;;4.70;4.10;;;16.30;99.90;;;;;;5013363;28;20022;-50
2023/08/14 01:56:38;;;;;;;9.05;4.50;;;16.20;99.90;;;;;;5013753;28;20032;-47
2023/08/14 01:59:04;;;;;;;5.05;4.28;;;16.20;99.90;;;;;;5013610;28;20017;-46
2023/08/14 02:01:29;;;;;;;8.18;4.97;;;16.20;99.90;;;;;;5013564;28;20052;-50
2023/08/14 02:03:55;;;;;;;7.10;4.45;;;16.20;99.90;;;;;;5013429;28;20442;-46
2023/08/14 02:06:20;;;;;;;6.65;4.55;;;16.10;99.90;;;;;;5013366;28;20022;-47
2023/08/14 02:08:46;;;;;;;5.85;4.10;;;16.10;99.90;;;;;;5013693;28;20504;-47
2023/08/14 02:11:11;;;;;;;6.45;4.75;;;16.10;99.90;;;;;;5014218;28;20092;-49
2023/08/14 02:13:37;;;;;;;7.57;4.40;;;16.10;99.90;;;;;;5013254;28;20026;-48
2023/08/14 02:16:03;;;;;;;6.30;4.78;;;16.00;99.90;;;;;;5013168;28;20026;-46
2023/08/14 02:18:29;;;;;;;7.82;4.57;;;16.00;99.90;;;;;;5013287;28;20121;-46
2023/08/14 02:20:54;;;;;;;6.82;4.60;;;16.00;99.90;;;;;;5013400;28;20101;-48
2023/08/14 02:23:20;;;;;;;11.68;5.50;;;16.10;99.90;;;;;;5012931;28;20022;-46
2023/08/14 02:25:45;;;;;;;5.85;4.40;;;16.10;99.90;;;;;;5013000;28;20018;-46
2023/08/14 02:28:12;;;;;;;5.18;4.47;;;16.10;99.90;;;;;;5013025;28;20128;-47
2023/08/14 02:30:41;;;;;;;6.78;5.10;;;16.10;99.90;;;;;;5013122;28;20042;-48
2023/08/14 02:33:08;;;;;;;6.38;4.55;;;16.00;99.90;;;;;;5013038;28;20541;-47
2023/08/14 02:35:34;;;;;;;7.15;4.90;;;16.00;99.90;;;;;;5012772;28;20032;-48
2023/08/14 02:38:04;;;;;;;4.97;4.43;;;15.90;99.90;;;;;;5013201;28;20018;-47
2023/08/14 02:40:30;;;;;;;4.68;4.18;;;15.90;99.90;;;;;;4995308;28;20083;-46
2023/08/14 02:43:01;;;;;;;5.95;4.28;;;15.90;99.90;;;;;;5012795;28;20114;-45
2023/08/14 02:45:26;;;;;;;9.10;5.07;;;16.00;99.90;;;;;;4994641;28;20500;-47
2023/08/14 02:47:52;;;;;;;5.75;4.82;;;16.00;99.90;;;;;;5012875;28;20022;-48
2023/08/14 02:50:18;;;;;;;6.70;4.70;;;16.00;99.90;;;;;;5012770;28;20087;-46
2023/08/14 02:52:43;;;;;;;6.20;4.97;;;15.90;99.90;;;;;;5012755;28;20461;-46
2023/08/14 02:55:09;;;;;;;7.53;4.40;;;15.90;99.90;;;;;;5012192;28;20022;-46
2023/08/14 02:57:34;;;;;;;7.68;4.93;;;15.90;99.90;;;;;;5012614;28;20421;-46
2023/08/14 03:00:00;;;;;;;6.40;4.53;;;15.90;99.90;;;;;;4995124;28;20026;-46
2023/08/14 03:02:25;;;;;;;5.57;4.88;;;15.90;99.90;;;;;;5012370;28;20057;-46
2023/08/14 03:04:51;;;;;;;8.80;4.85;;;15.90;99.90;;;;;;5012021;28;20444;-47
2023/08/14 03:07:16;;;;;;;6.78;5.15;;;15.80;99.90;;;;;;5012457;28;20018;-46
2023/08/14 03:09:42;;;;;;;8.20;5.32;;;15.90;99.90;;;;;;5012366;28;20026;-46
2023/08/14 03:12:07;;;;;;;5.60;5.00;;;15.90;99.90;;;;;;5012391;28;20076;-47
2023/08/14 03:14:33;;;;;;;7.55;5.60;;;15.80;99.90;;;;;;5011809;28;20038;-47
2023/08/14 03:16:58;;;;;;;7.72;5.20;;;15.80;99.90;;;;;;5012543;28;20034;-47
2023/08/14 03:19:24;;;;;;;7.60;5.32;;;15.70;99.90;;;;;;5012688;28;20032;-47
2023/08/14 03:21:52;;;;;;;8.57;5.25;;;15.70;99.90;;;;;;5012179;28;20021;-45
2023/08/14 03:24:18;;;;;;;5.80;5.20;;;15.70;99.90;;;;;;4993805;28;20063;-46
2023/08/14 03:26:45;;;;;;;6.38;5.00;;;15.80;99.90;;;;;;5012124;28;20026;-46
2023/08/14 03:29:10;;;;;;;8.35;5.80;;;15.80;99.90;;;;;;5012082;28;20018;-45
2023/08/14 03:31:36;;;;;;;6.20;5.05;;;15.80;99.90;;;;;;5011819;28;20026;-48
2023/08/14 03:34:01;;;;;;;6.60;4.53;;;15.80;99.90;;;;;;5018252;28;20017;-46
2023/08/14 03:36:27;;;;;;;7.18;4.85;;;15.80;99.90;;;;;;5013291;28;20052;-45
2023/08/14 03:38:53;;;;;;;10.10;4.93;;;15.80;99.90;;;;;;4992016;28;20080;-45
2023/08/14 03:41:19;;;;;;;5.97;5.18;;;15.70;99.90;;;;;;5011829;28;20030;-45
2023/08/14 03:43:45;;;;;;;6.72;5.07;;;15.70;99.90;;;;;;4993991;28;20022;-46
2023/08/14 03:46:10;;;;;;;5.70;4.97;;;15.60;99.90;;;;;;5011537;28;20032;-47
2023/08/14 03:48:37;;;;;;;5.47;4.80;;;15.60;99.90;;;;;;5011585;28;20025;-45
2023/08/14 03:51:02;;;;;;;8.50;5.88;;;15.50;99.90;;;;;;5011770;28;20029;-47
2023/08/14 03:53:28;;;;;;;17.25;6.43;;;15.50;99.90;;;;;;5011209;28;20034;-47
2023/08/14 03:55:53;;;;;;;7.65;5.30;;;15.50;99.90;;;;;;5011285;28;20101;-47
2023/08/14 03:58:19;;;;;;;9.15;5.28;;;15.60;99.90;;;;;;5011526;28;20087;-46
2023/08/14 04:00:46;;;;;;;11.10;5.28;;;15.70;99.90;;;;;;5011667;28;20076;-47
2023/08/14 04:03:12;;;;;;;8.00;4.88;;;15.70;99.90;;;;;;4993030;28;20022;-48
2023/08/14 04:05:39;;;;;;;7.47;5.57;;;15.70;99.90;;;;;;5010867;28;20438;-46
2023/08/14 04:08:05;;;;;;;5.05;4.30;;;15.70;99.90;;;;;;5011539;28;20025;-46
2023/08/14 04:10:32;;;;;;;7.05;5.00;;;15.70;99.90;;;;;;5011218;28;20532;-47
2023/08/14 04:12:57;;;;;;;9.85;5.47;;;15.80;99.90;;;;;;5011547;28;20040;-45
2023/08/14 04:15:23;;;;;;;8.90;5.03;;;15.80;99.90;;;;;;5010845;28;20031;-46
2023/08/14 04:17:49;;;;;;;7.97;5.05;;;15.90;99.90;;;;;;5011134;28;20029;-45
2023/08/14 04:20:14;;;;;;;9.13;5.30;;;15.90;99.90;;;;;;5011261;28;20018;-46
2023/08/14 04:22:40;;;;;;;6.05;4.90;;;16.00;99.90;;;;;;5011453;28;20026;-46
2023/08/14 04:25:06;;;;;;;7.32;4.45;;;16.00;99.90;;;;;;5010896;28;20022;-48
2023/08/14 04:27:31;;;;;;;8.90;4.60;;;16.00;99.90;;;;;;4993421;28;20049;-46
2023/08/14 04:29:57;;;;;;;8.52;4.50;;;16.00;99.90;;;;;;5010978;28;20025;-46
2023/08/14 04:32:23;;;;;;;6.38;4.63;;;16.00;99.90;;;;;;4993020;28;20038;-46
2023/08/14 04:34:48;;;;;;;7.30;3.85;;;16.00;99.90;;;;;;5010549;28;20026;-47
2023/08/14 04:37:14;;;;;;;9.05;4.75;;;16.00;99.90;;;;;;5010762;28;20022;-46
2023/08/14 04:39:39;;;;;;;10.65;5.47;;;16.00;99.90;;;;;;5010752;28;20392;-47
2023/08/14 04:42:05;;;;;;;9.98;4.93;;;16.00;99.90;;;;;;5010635;28;20038;-46
2023/08/14 04:44:31;;;;;;;6.57;4.82;;;16.00;99.90;;;;;;5010277;28;20029;-46
2023/08/14 04:46:56;;;;;;;4.95;4.20;;;16.00;99.90;;;;;;5010657;28;20018;-46
2023/08/14 04:49:22;;;;;;;6.32;4.47;;;16.00;99.90;;;;;;5010733;28;20030;-46
2023/08/14 04:51:47;;;;;;;6.40;4.68;;;16.00;99.90;;;;;;5011004;28;20022;-45
2023/08/14 04:54:13;;;;;;;5.85;4.72;;;16.00;99.90;;;;;;5010180;28;20022;-46
2023/08/14 04:56:38;;;;;;;6.38;5.03;;;16.10;99.90;;;;;;5010533;28;20108;-45
2023/08/14 04:59:04;;;;;;;4.75;4.32;;;16.00;99.90;;;;;;4992891;28;20038;-46
2023/08/14 05:01:29;;;;;;;4.68;4.22;;;16.10;99.90;;;;;;4992750;28;20084;-45
2023/08/14 05:03:55;;;;;;;5.20;4.28;;;16.10;99.90;;;;;;5010154;28;20049;-45
2023/08/14 05:06:20;;;;;;;5.03;4.15;;;16.10;99.90;;;;;;5010164;28;20018;-46
2023/08/14 05:08:46;;;;;;;10.73;4.75;;;16.10;99.90;;;;;;5010530;28;20470;-45
2023/08/14 05:11:11;;;;;;;5.32;4.68;;;16.10;99.90;;;;;;5010445;28;20110;-45
2023/08/14 05:13:37;;;;;;;6.80;4.50;;;16.20;99.90;;;;;;5010515;28;20489;-45
2023/08/14 05:16:02;;;;;;;5.40;4.68;;;16.20;99.90;;;;;;5013616;28;20385;-46
2023/08/14 05:18:28;;;;;;;6.53;4.40;;;16.30;99.90;;;;;;5014774;28;20087;-47
2023/08/14 05:20:53;;;;;;;4.72;4.22;;;16.30;99.90;;;;;;5014739;28;20022;-46
2023/08/14 05:23:20;;;;;;;5.70;4.28;;;16.30;99.90;;;;;;5014307;28;20026;-45
2023/08/14 05:25:45;;;;;;;5.03;4.53;;;16.30;99.90;;;;;;5006435;28;20485;-47
2023/08/14 05:28:11;;;;;;;6.32;4.75;;;16.40;99.90;;;;;;5014225;28;20108;-46
2023/08/14 05:30:42;;;;;;;6.43;4.43;;;16.40;99.90;;;;;;5014058;28;20156;-46
2023/08/14 05:33:08;;;;;;;4.93;4.43;;;16.50;99.90;;;;;;5013960;28;20032;-47
2023/08/14 05:35:33;;;;;;;7.95;4.65;;;16.50;99.90;;;;;;5013571;28;20026;-46
2023/08/14 05:37:59;;;;;;;6.00;4.03;;;16.60;99.90;;;;;;5014073;28;20088;-47
2023/08/14 05:40:26;;;;;;;7.50;4.55;;;16.70;99.90;;;;;;5014066;28;20105;-46
2023/08/14 05:43:05;;;;;;;6.63;4.80;;;16.80;99.90;;;;;;4996608;28;20105;-46
2023/08/14 05:45:35;;;;;;;5.93;4.07;;;16.90;99.90;;;;;;5013360;28;20218;-47
2023/08/14 05:48:02;;;;;;;4.88;4.38;;;17.00;99.90;;;;;;5013861;28;20468;-47
2023/08/14 05:50:29;;;;;;;10.18;4.80;;;17.00;99.90;;;;;;5013749;28;20457;-46
2023/08/14 05:53:04;;;;;;;5.05;4.55;;;17.10;99.90;;;;;;5013691;28;20025;-49
2023/08/14 05:55:41;;;;;;;4.75;3.95;;;17.10;99.90;;;;;;5013249;28;20249;-48
2023/08/14 05:58:07;;;;;;;4.88;4.28;;;17.10;99.90;;;;;;5013734;28;20549;-50
2023/08/14 06:00:34;;;;;;;6.47;4.35;;;17.10;99.90;;;;;;4996212;28;20103;-46
2023/08/14 06:03:00;;;;;;;5.13;4.30;;;17.10;99.90;;;;;;5013396;28;20022;-48
2023/08/14 06:05:26;;;;;;;5.85;4.30;;;17.20;99.90;;;;;;5013142;28;20018;-48
2023/08/14 06:07:53;;;;;;;6.05;4.45;;;17.20;99.90;;;;;;5013595;28;20018;-46
2023/08/14 06:10:19;;;;;;;8.50;4.53;;;17.20;99.90;;;;;;5013451;28;20108;-48
2023/08/14 06:12:45;;;;;;;6.07;4.10;;;17.30;99.90;;;;;;5013341;28;20072;-45
2023/08/14 06:15:12;;;;;;;4.80;4.10;;;17.30;99.90;;;;;;5013045;28;20485;-46
2023/08/14 06:17:39;;;;;;;6.18;4.32;;;17.40;99.90;;;;;;5013464;28;20042;-47
2023/08/14 06:20:05;;;;;;;8.00;4.18;;;17.40;99.90;;;;;;5013240;28;20014;-47
2023/08/14 06:22:31;;;;;;;8.32;4.68;;;17.50;99.90;;;;;;4995390;28;20087;-46
2023/08/14 06:24:56;;;;;;;8.50;4.57;;;17.60;99.90;;;;;;5012707;28;20424;-46
2023/08/14 06:27:22;;;;;;;6.03;4.97;;;17.70;99.90;;;;;;5012597;28;20026;-46
2023/08/14 06:29:48;;;;;;;9.48;4.70;;;17.80;99.90;;;;;;5013271;28;20030;-47
2023/08/14 06:32:13;;;;;;;8.23;4.95;;;18.10;99.90;;;;;;4995594;28;20029;-46
2023/08/14 06:34:40;;;;;;;6.20;4.35;;;18.30;99.90;;;;;;5012776;28;20046;-47
2023/08/14 06:37:06;;;;;;;6.25;4.07;;;18.50;99.90;;;;;;5013070;28;20450;-48
2023/08/14 06:39:32;;;;;;;6.18;4.35;;;18.80;99.90;;;;;;4995322;28;20025;-49
2023/08/14 06:41:58;;;;;;;5.15;4.25;;;19.00;99.90;;;;;;5012808;28;20056;-47
2023/08/14 06:44:23;;;;;;;5.63;3.92;;;19.20;99.90;;;;;;5012438;28;20101;-47
2023/08/14 06:46:49;;;;;;;8.60;4.18;;;19.40;99.90;;;;;;5012906;28;20427;-50
2023/08/14 06:49:15;;;;;;;4.72;3.30;;;19.40;99.90;;;;;;5012924;28;20489;-48
2023/08/14 06:51:40;;;;;;;8.73;4.13;;;19.50;99.90;;;;;;5013147;28;20026;-48
2023/08/14 06:54:06;;;;;;;10.48;3.85;;;19.50;99.90;;;;;;5012286;28;20025;-46
2023/08/14 06:56:32;;;;;;;9.35;3.92;;;19.70;99.90;;;;;;5012368;28;20046;-48
2023/08/14 06:58:58;;;;;;;4.90;4.03;;;19.90;99.90;;;;;;5012652;28;20014;-49
2023/08/14 07:01:24;;;;;;;6.00;3.80;;;20.20;99.90;;;;;;5012531;28;20157;-47
2023/08/14 07:03:49;;;;;;;10.80;3.67;;;20.40;99.90;;;;;;5012173;28;20053;-47
2023/08/14 07:06:15;;;;;;;6.45;3.30;;;20.60;99.90;;;;;;5012256;28;20052;-46
2023/08/14 07:08:41;;;;;;;4.55;3.65;;;20.70;99.90;;;;;;4994922;28;20262;-49
2023/08/14 07:11:07;;;;;;;7.00;3.97;;;20.80;99.90;;;;;;5012359;28;20017;-46
2023/08/14 07:13:32;;;;;;;4.78;3.22;;;21.00;99.90;;;;;;5011986;28;20040;-49
2023/08/14 07:15:58;;;;;;;5.93;3.42;;;21.20;99.90;;;;;;5011921;28;20021;-46
2023/08/14 07:18:23;;;;;;;8.45;3.58;;;21.20;99.90;;;;;;5012269;28;20068;-46
2023/08/14 07:20:49;;;;;;;4.70;3.63;;;21.30;99.90;;;;;;5012200;28;20053;-48
2023/08/14 07:23:19;;;;;;;4.85;3.65;;;21.60;99.90;;;;;;4994466;28;20029;-46
2023/08/14 07:25:45;;;;;;;7.03;4.20;;;21.80;99.90;;;;;;5011618;28;20029;-46
2023/08/14 07:28:10;;;;;;;4.75;3.40;;;22.00;99.90;;;;;;5012051;28;20010;-47
2023/08/14 07:30:38;;;;;;;8.52;3.80;;;22.10;99.90;;;;;;5012045;28;20113;-47
2023/08/14 07:33:04;;;;;;;9.55;2.97;;;22.20;99.90;;;;;;5011743;28;20121;-48
2023/08/14 07:35:30;;;;;;;7.95;3.60;;;22.30;99.90;;;;;;5011486;28;20112;-46
2023/08/14 07:37:56;;;;;;;4.85;2.72;;;22.40;99.90;;;;;;4993722;28;20160;-46
2023/08/14 07:40:21;;;;;;;8.07;3.30;;;22.60;99.90;;;;;;5012148;28;20037;-48
2023/08/14 07:42:47;;;;;;;7.70;3.30;;;22.70;99.90;;;;;;5011765;28;20133;-49
2023/08/14 07:45:12;;;;;;;4.38;3.08;;;22.90;99.90;;;;;;5011363;28;20025;-47
2023/08/14 07:47:38;;;;;;;4.35;3.13;;;23.10;99.90;;;;;;5011734;28;20369;-45
2023/08/14 07:50:04;;;;;;;6.30;3.20;;;23.20;99.90;;;;;;5011691;28;20011;-48
2023/08/14 07:52:30;;;;;;;5.55;2.95;;;23.30;99.90;;;;;;5011313;28;20022;-45
2023/08/14 07:54:57;;;;;;;5.70;2.70;;;23.50;99.90;;;;;;5011158;28;20030;-48
2023/08/14 07:57:23;;;;;;;5.38;2.78;;;23.70;99.90;;;;;;5011536;28;20030;-47
2023/08/14 07:59:49;;;;;;;5.07;2.70;;;23.90;99.90;;;;;;5011630;28;20454;-47
2023/08/14 08:02:15;;;;;;;3.53;2.30;;;24.10;99.90;;;;;;5011508;28;20121;-49
2023/08/14 08:04:41;;;;;;;4.28;3.22;;;24.20;99.90;;;;;;5011006;28;20108;-48
2023/08/14 08:07:06;;;;;;;5.65;2.28;;;24.50;99.90;;;;;;5011346;28;20018;-46
2023/08/14 08:09:32;;;;;;;3.50;2.50;;;24.60;99.90;;;;;;5011275;28;20030;-47
2023/08/14 08:11:58;;;;;;;4.65;2.30;;;24.90;99.90;;;;;;5011396;28;20018;-47
2023/08/14 08:14:25;;;;;;;6.32;2.55;;;25.20;99.90;;;;;;5010953;28;20022;-46
2023/08/14 08:16:50;;;;;;;7.03;2.50;;;25.50;99.90;;;;;;5011098;28;20535;-47
2023/08/14 08:19:16;;;;;;;5.47;2.45;;;25.70;99.30;;;;;;5011096;28;20025;-46
2023/08/14 08:21:42;;;;;;;5.07;2.47;;;26.00;99.90;;;;;;5010838;28;20374;-47
2023/08/14 08:24:08;;;;;;;7.88;2.42;;;26.70;99.80;;;;;;5010879;28;20468;-46
2023/08/14 08:26:34;;;;;;;3.28;2.22;;;27.60;96.60;;;;;;5010645;28;20041;-45
2023/08/14 08:29:00;;;;;;;6.13;2.42;;;28.30;94.40;;;;;;5011149;28;20079;-47
2023/08/14 08:31:26;;;;;;;5.15;2.38;;;28.80;91.40;;;;;;5010710;28;20038;-45
2023/08/14 08:33:51;;;;;;;6.65;2.15;;;29.30;91.50;;;;;;5010419;28;20022;-45
2023/08/14 08:36:17;;;;;;;4.00;1.92;;;29.90;89.70;;;;;;5010912;28;20033;-47
2023/08/14 08:38:44;;;;;;;4.30;1.83;;;31.10;87.70;;;;;;5010987;28;20018;-48
2023/08/14 08:41:12;;;;;;;5.72;1.95;;;31.90;80.60;;;;;;5010863;28;20097;-46
2023/08/14 08:43:39;;;;;;;2.25;1.70;;;33.20;80.00;;;;;;4992673;28;20141;-47
2023/08/14 08:46:09;;;;;;;2.75;1.70;;;33.50;74.80;;;;;;5010425;28;20026;-48
2023/08/14 08:48:37;;;;;;;3.83;1.92;;;34.80;73.80;;;;;;5010355;28;20030;-48
2023/08/14 08:51:04;;;;;;;4.32;1.70;;;35.70;70.70;;;;;;4992583;28;20422;-49
2023/08/14 08:53:30;;;;;;;4.20;1.85;;;36.10;67.30;;;;;;5010098;28;20038;-46
2023/08/14 08:55:56;;;;;;;2.42;1.70;;;36.40;65.50;;;;;;5010188;28;20018;-49
2023/08/14 08:58:21;;;;;;;3.40;1.58;;;36.50;62.90;;;;;;5010549;28;20022;-46
2023/08/14 09:00:47;;;;;;;3.33;1.88;;;36.60;66.90;;;;;;5010654;28;20041;-46
2023/08/14 09:03:13;;;;;;;4.32;1.85;;;36.70;64.10;;;;;;5010105;28;20022;-46
2023/08/14 09:05:40;;;;;;;3.20;1.50;;;36.80;61.10;;;;;;5010094;28;20025;-48
2023/08/14 09:08:08;;;;;;;3.28;1.70;;;37.30;64.10;;;;;;5010382;28;20025;-46
2023/08/14 09:10:34;;;;;;;2.65;1.40;;;38.50;61.10;;;;;;5010307;28;20133;-47
2023/08/14 09:13:00;;;;;;;3.35;1.60;;;38.40;62.50;;;;;;5010307;28;20105;-49
2023/08/14 09:15:26;;;;;;;3.78;1.73;;;38.50;57.70;;;;;;5009554;28;20549;-47
2023/08/14 09:17:53;;;;;;;3.50;1.73;;;38.10;58.40;;;;;;5010096;28;20122;-48
2023/08/14 09:20:19;;;;;;;3.83;2.00;;;38.30;59.10;;;;;;5010244;28;20049;-47
2023/08/14 09:22:45;;;;;;;3.10;1.65;;;36.70;58.90;;;;;;5010142;28;20066;-50
2023/08/14 09:25:10;;;;;;;3.47;1.42;;;36.40;59.50;;;;;;5010143;28;20014;-47
2023/08/14 09:27:37;;;;;;;7.95;1.83;;;36.20;60.70;;;;;;5010165;28;20076;-47
2023/08/14 09:30:05;;;;;;;2.97;1.63;;;35.50;61.10;;;;;;4992566;28;20497;-46
2023/08/14 09:32:31;;;;;;;5.05;1.80;;;35.00;63.30;;;;;;5009941;28;20399;-46
2023/08/14 09:35:01;;;;;;;3.50;2.17;;;35.40;62.90;;;;;;5009788;28;20030;-46
2023/08/14 09:37:27;;;;;;;7.28;2.20;;;35.50;62.60;;;;;;5010115;28;20036;-47
2023/08/14 09:40:14;;;;;;;3.95;2.88;;;35.80;63.40;;;;;;5008175;28;20120;-46
2023/08/14 09:42:41;;;;;;;3.92;2.03;;;35.40;62.80;;;;;;4992177;28;20174;-46
2023/08/14 09:45:07;;;;;;;3.17;1.88;;;35.20;65.30;;;;;;5009545;28;20053;-47
2023/08/14 09:47:34;;;;;;;3.65;2.10;;;35.00;64.90;;;;;;4992292;28;20022;-46
2023/08/14 09:50:00;;;;;;;4.43;2.15;;;34.80;66.00;;;;;;4992194;28;20026;-47
2023/08/14 09:52:25;;;;;;;4.55;1.95;;;34.50;64.30;;;;;;5010021;28;20125;-46
2023/08/14 09:54:52;;;;;;;17.70;2.50;;;34.10;65.60;;;;;;5009794;28;20564;-46
2023/08/14 09:57:20;;;;;;;5.35;2.10;;;34.10;65.60;;;;;;4992366;28;20030;-46
2023/08/14 09:59:46;;;;;;;6.50;2.00;;;34.00;67.10;;;;;;5009819;28;20403;-45
2023/08/14 10:02:16;;;;;;;2.08;1.88;;;33.70;66.40;;;;;;4994048;28;20026;-45
2023/08/14 10:04:46;;;;;;;5.05;2.45;;;33.20;67.60;;;;;;5013086;28;20055;-45
2023/08/14 10:07:13;;;;;;;;;;;32.70;68.10;;;;;;5014055;28;20044;-47
2023/08/14 10:09:45;;;;;;;4.68;1.75;;;32.20;69.60;;;;;;4995757;28;19953;-46
2023/08/14 10:12:15;;;;;;;3.58;2.10;;;31.80;70.80;;;;;;5013360;28;20056;-45
2023/08/14 10:14:47;;;;;;;4.00;2.20;;;31.00;72.20;;;;;;5013232;28;20022;-45
2023/08/14 10:17:19;;;;;;;3.55;2.10;;;30.60;75.70;;;;;;5013416;28;20049;-45
2023/08/14 10:19:48;;;;;;;4.25;2.53;;;30.20;75.00;;;;;;5013746;28;20488;-46
2023/08/14 10:22:14;;;;;;;3.83;2.47;;;29.90;75.50;;;;;;5013102;28;20033;-46
2023/08/14 10:24:41;;;;;;;6.80;2.72;;;29.40;78.00;;;;;;5012768;28;20541;-45
2023/08/14 10:27:07;;;;;;;7.18;2.50;;;29.10;78.00;;;;;;5013533;28;20025;-45
2023/08/14 10:29:35;;;;;;;4.43;2.75;;;28.80;78.80;;;;;;5013317;28;20552;-44
2023/08/14 10:32:01;;;;;;;4.55;2.58;;;28.60;80.20;;;;;;5013116;28;20417;-45
2023/08/14 10:34:30;;;;;;;4.13;2.53;;;28.40;80.80;;;;;;5012584;28;20030;-45
2023/08/14 10:36:55;;;;;;;5.65;2.45;;;28.40;81.30;;;;;;5012986;28;20312;-45
2023/08/14 10:39:35;;;;;;;5.20;3.05;;;28.50;81.80;;;;;;5012936;28;20025;-44
2023/08/14 10:42:04;;;;;;;4.30;2.60;;;28.60;80.40;;;;;;5012886;28;20018;-46
2023/08/14 10:44:35;;;;;;;4.65;3.17;;;28.70;80.40;;;;;;5012393;28;20030;-45
2023/08/14 10:47:10;;;;;;;9.77;6.75;;;28.80;80.20;;;;;;5012876;28;20014;-46
2023/08/14 10:49:43;;;;;;;3.53;2.40;;;28.90;80.00;;;;;;5013065;28;20041;-46
2023/08/14 10:52:12;;;;;;;4.72;2.90;;;28.90;80.60;;;;;;5012981;28;20153;-46
2023/08/14 10:54:38;;;;;;;7.40;2.65;;;29.10;79.50;;;;;;5012254;28;20537;-46
2023/08/14 10:57:09;;;;;;;6.50;2.50;;;29.20;79.40;;;;;;5012558;28;20097;-48
2023/08/14 10:59:35;;;;;;;5.00;2.40;;;29.20;79.00;;;;;;4994837;28;20076;-45
2023/08/14 11:02:20;;;;;;;4.15;2.33;;;29.30;78.90;;;;;;4994431;28;20022;-46
2023/08/14 11:05:00;;;;;;;5.57;2.58;;;29.50;79.80;;;;;;5011300;28;20034;-49
2023/08/14 11:07:32;;;;;;;2.55;1.92;;;30.20;79.00;;;;;;5012381;28;20073;-48
2023/08/14 11:09:57;;;;;;;4.10;2.65;;;30.70;76.70;;;;;;4995086;28;20393;-47
2023/08/14 11:12:23;;;;;;;2.85;2.40;;;31.30;81.40;;;;;;5011977;28;20034;-48
2023/08/14 11:14:49;;;;;;;4.00;2.22;;;32.10;76.50;;;;;;5011753;28;20466;-47
2023/08/14 11:17:14;;;;;;;7.45;2.47;;;32.20;76.50;;;;;;5012216;28;20025;-49
2023/08/14 11:19:40;;;;;;;7.00;2.72;;;32.00;75.40;;;;;;5012201;28;20063;-47
2023/08/14 11:22:06;;;;;;;5.40;2.13;;;31.90;75.70;;;;;;5012240;28;20022;-46
2023/08/14 11:24:32;;;;;;;7.63;2.72;;;32.20;75.70;;;;;;4994231;28;20076;-47
2023/08/14 11:26:59;;;;;;;4.47;2.45;;;31.90;74.20;;;;;;4994278;28;20032;-46
2023/08/14 11:29:24;;;;;;;5.75;2.42;;;32.20;73.30;;;;;;5011918;28;20037;-46
2023/08/14 11:31:51;;;;;;;5.57;2.55;;;31.90;75.70;;;;;;4994081;28;20030;-46
2023/08/14 11:34:18;;;;;;;3.38;2.10;;;31.60;77.30;;;;;;5011444;28;20068;-47
2023/08/14 11:36:55;;;;;;;5.88;2.42;;;31.40;79.10;;;;;;5011796;28;20579;-48
2023/08/14 11:39:20;;;;;;;5.20;2.92;;;31.00;78.60;;;;;;5011668;28;20489;-46
2023/08/14 11:41:46;;;;;;;3.03;2.33;;;30.70;79.90;;;;;;5011722;28;20026;-46
2023/08/14 11:44:11;;;;;;;4.95;2.25;;;30.60;80.50;;;;;;5011698;28;20054;-46
2023/08/14 11:46:38;;;;;;;2.33;2.13;;;30.50;82.10;;;;;;5011927;28;20540;-47
2023/08/14 11:49:04;;;;;;;3.55;2.30;;;30.30;80.20;;;;;;5011921;28;20022;-45
2023/08/14 11:51:31;;;;;;;3.38;2.53;;;30.10;79.60;;;;;;5011674;28;20030;-45
2023/08/14 11:53:57;;;;;;;3.33;2.65;;;29.90;80.60;;;;;;5011133;28;20022;-47
2023/08/14 11:56:23;;;;;;;3.03;2.35;;;29.60;83.80;;;;;;5011189;28;20029;-46
2023/08/14 11:58:48;;;;;;;5.22;2.30;;;29.40;84.10;;;;;;5011338;28;20509;-48
2023/08/14 12:01:15;;;;;;;4.22;2.53;;;29.20;82.70;;;;;;5011289;28;20030;-45
2023/08/14 12:03:41;;;;;;;3.30;2.65;;;29.20;84.20;;;;;;5010928;28;20025;-45
2023/08/14 12:06:07;;;;;;;4.47;2.35;;;29.20;84.70;;;;;;5011130;28;20026;-46
2023/08/14 12:08:33;;;;;;;3.58;2.28;;;29.50;83.00;;;;;;5011086;28;20093;-45
2023/08/14 12:10:58;;;;;;;4.03;2.35;;;29.60;83.90;;;;;;5011542;28;20050;-46
2023/08/14 12:13:24;;;;;;;5.25;2.40;;;30.10;85.00;;;;;;5011034;28;20026;-46
2023/08/14 12:15:49;;;;;;;4.88;2.70;;;30.30;81.40;;;;;;5011057;28;20041;-48
2023/08/14 12:18:22;;;;;;;3.42;2.80;;;30.40;80.70;;;;;;5011235;28;20392;-47
2023/08/14 12:20:52;;;;;;;4.57;2.75;;;31.40;81.70;;;;;;5011105;28;20026;-49
2023/08/14 12:23:22;;;;;;;7.30;2.50;;;31.80;80.60;;;;;;5010891;28;20092;-46
2023/08/14 12:25:48;;;;;;;4.60;2.95;;;32.10;82.90;;;;;;5010195;28;20032;-46
2023/08/14 12:28:13;;;;;;;5.88;2.90;;;32.30;78.20;;;;;;5010946;28;20021;-45
2023/08/14 12:30:39;;;;;;;3.85;2.20;;;32.60;81.80;;;;;;5010903;28;20037;-46
2023/08/14 12:33:04;;;;;;;4.57;2.53;;;32.70;78.20;;;;;;5010800;28;20113;-48
2023/08/14 12:35:30;;;;;;;3.35;2.40;;;33.20;81.80;;;;;;5010388;28;20022;-46
2023/08/14 12:37:56;;;;;;;4.30;2.50;;;33.00;77.60;;;;;;5010842;28;20057;-47
2023/08/14 12:40:21;;;;;;;6.20;2.60;;;33.50;80.60;;;;;;5011052;28;20040;-47
2023/08/14 12:42:47;;;;;;;5.20;2.53;;;33.60;78.70;;;;;;5010574;28;20397;-47
2023/08/14 12:45:12;;;;;;;3.53;2.60;;;33.60;78.70;;;;;;5010271;28;20089;-48